createdAt,value
2022-08-26T00:01:45.154Z,26.30
2022-08-26T00:04:12.804Z,26.30
2022-08-26T00:06:42.324Z,26.20
2022-08-26T00:09:09.696Z,26.20
2022-08-26T00:11:36.890Z,26.20
2022-08-26T00:14:03.877Z,26.10
2022-08-26T00:16:32.068Z,26.10
2022-08-26T00:18:59.280Z,26.10
2022-08-26T00:21:26.583Z,26.10
2022-08-26T00:23:54.237Z,26.00
2022-08-26T00:26:20.973Z,26.00
2022-08-26T00:28:47.857Z,26.00
2022-08-26T00:31:14.649Z,26.00
2022-08-26T00:33:41.856Z,25.90
2022-08-26T00:36:20.044Z,25.90
2022-08-26T00:38:48.106Z,25.90
2022-08-26T00:41:15.031Z,25.80
2022-08-26T00:43:47.666Z,25.70
2022-08-26T00:46:19.387Z,25.70
2022-08-26T00:48:49.253Z,25.70
2022-08-26T00:51:19.774Z,25.60
2022-08-26T00:53:52.701Z,25.70
2022-08-26T00:56:59.967Z,25.60
2022-08-26T00:59:27.190Z,25.60
2022-08-26T01:01:53.893Z,25.50
2022-08-26T01:04:23.083Z,25.50
2022-08-26T01:06:52.332Z,25.50
2022-08-26T01:09:19.673Z,25.40
2022-08-26T01:11:47.784Z,25.40
2022-08-26T01:14:16.778Z,25.40
2022-08-26T01:16:46.082Z,25.30
2022-08-26T01:19:20.651Z,25.40
2022-08-26T01:21:52.392Z,25.30
2022-08-26T01:24:19.585Z,25.30
2022-08-26T01:26:46.381Z,25.30
2022-08-26T01:29:19.084Z,25.20
2022-08-26T01:31:51.307Z,25.20
2022-08-26T01:34:22.360Z,25.20
2022-08-26T01:36:55.074Z,25.10
2022-08-26T01:39:21.896Z,25.10
2022-08-26T01:41:48.688Z,25.10
2022-08-26T01:44:24.212Z,25.10
2022-08-26T01:46:52.888Z,25.10
2022-08-26T01:49:21.473Z,25.00
2022-08-26T01:51:50.664Z,25.00
2022-08-26T01:54:17.927Z,25.00
2022-08-26T01:56:48.220Z,24.90
2022-08-26T01:59:17.020Z,24.90
2022-08-26T02:01:44.098Z,24.90
2022-08-26T02:04:20.054Z,24.80
2022-08-26T02:06:47.555Z,24.80
2022-08-26T02:09:15.267Z,24.80
2022-08-26T02:11:42.278Z,24.80
2022-08-26T02:14:13.755Z,24.70
2022-08-26T02:16:42.828Z,24.70
2022-08-26T02:19:16.967Z,24.70
2022-08-26T02:21:45.927Z,24.60
2022-08-26T02:24:24.578Z,24.60
2022-08-26T02:26:54.662Z,24.60
2022-08-26T02:29:30.138Z,24.60
2022-08-26T02:31:58.047Z,24.60
2022-08-26T02:34:31.354Z,24.50
2022-08-26T02:37:04.304Z,24.50
2022-08-26T02:39:33.127Z,24.50
2022-08-26T02:41:59.832Z,24.40
2022-08-26T02:44:27.242Z,24.50
2022-08-26T02:46:54.670Z,24.40
2022-08-26T02:49:23.681Z,24.30
2022-08-26T02:51:50.705Z,24.40
2022-08-26T02:54:19.439Z,24.30
2022-08-26T02:56:46.170Z,24.30
2022-08-26T02:59:12.899Z,24.30
2022-08-26T03:01:40.564Z,24.30
2022-08-26T03:04:09.838Z,24.30
2022-08-26T03:06:37.314Z,24.20
2022-08-26T03:09:05.030Z,24.10
2022-08-26T03:11:33.164Z,24.20
2022-08-26T03:14:00.653Z,24.10
2022-08-26T03:16:37.156Z,24.10
2022-08-26T03:19:05.994Z,24.10
2022-08-26T03:21:32.744Z,24.10
2022-08-26T03:24:00.372Z,24.00
2022-08-26T03:26:27.879Z,24.00
2022-08-26T03:29:13.936Z,24.00
2022-08-26T03:31:40.875Z,24.00
2022-08-26T03:34:07.653Z,24.00
2022-08-26T03:36:35.069Z,23.90
2022-08-26T03:39:02.231Z,23.90
2022-08-26T03:41:29.291Z,23.90
2022-08-26T03:44:00.992Z,23.80
2022-08-26T03:46:28.804Z,23.80
2022-08-26T03:48:55.515Z,23.80
2022-08-26T03:51:22.208Z,23.70
2022-08-26T03:56:18.869Z,23.70
2022-08-26T03:58:45.926Z,23.70
2022-08-26T04:01:16.200Z,23.70
2022-08-26T04:04:00.091Z,23.60
2022-08-26T04:06:28.955Z,23.60
2022-08-26T04:08:57.995Z,23.60
2022-08-26T04:11:32.143Z,23.60
2022-08-26T04:14:03.654Z,23.50
2022-08-26T04:16:31.193Z,23.60
2022-08-26T04:18:58.888Z,23.50
2022-08-26T04:21:26.543Z,23.50
2022-08-26T04:23:54.153Z,23.50
2022-08-26T04:26:22.013Z,23.40
2022-08-26T04:28:50.588Z,23.40
2022-08-26T04:31:18.556Z,23.50
2022-08-26T04:33:47.672Z,23.40
2022-08-26T04:36:17.543Z,23.40
2022-08-26T04:38:46.756Z,23.30
2022-08-26T04:41:15.257Z,23.30
2022-08-26T04:43:45.002Z,23.30
2022-08-26T04:46:13.838Z,23.30
2022-08-26T04:48:41.520Z,23.30
2022-08-26T04:51:09.941Z,23.30
2022-08-26T04:53:37.890Z,23.30
2022-08-26T04:56:05.442Z,23.20
2022-08-26T04:58:32.604Z,23.20
2022-08-26T05:00:59.867Z,23.10
2022-08-26T05:03:27.496Z,23.10
2022-08-26T05:05:57.936Z,23.10
2022-08-26T05:08:24.915Z,23.10
2022-08-26T05:10:56.402Z,23.10
2022-08-26T05:13:26.487Z,23.10
2022-08-26T05:15:53.521Z,23.10
2022-08-26T05:18:23.158Z,23.00
2022-08-26T05:20:53.899Z,23.00
2022-08-26T05:23:23.012Z,23.00
2022-08-26T05:25:54.654Z,22.90
2022-08-26T05:28:22.964Z,23.00
2022-08-26T05:30:51.581Z,22.90
2022-08-26T05:33:19.051Z,23.00
2022-08-26T05:35:47.186Z,22.90
2022-08-26T05:38:16.761Z,23.00
2022-08-26T05:40:46.738Z,22.90
2022-08-26T05:43:14.362Z,22.90
2022-08-26T05:45:46.112Z,22.90
2022-08-26T05:48:17.412Z,22.90
2022-08-26T05:50:48.078Z,22.90
2022-08-26T05:53:18.135Z,22.90
2022-08-26T05:55:48.214Z,22.90
2022-08-26T05:58:15.705Z,22.90
2022-08-26T06:00:45.281Z,22.90
2022-08-26T06:03:12.126Z,22.90
2022-08-26T06:05:40.052Z,22.90
2022-08-26T06:08:19.170Z,22.90
2022-08-26T06:10:58.061Z,22.90
2022-08-26T06:13:26.964Z,22.90
2022-08-26T06:15:58.072Z,22.90
2022-08-26T06:18:32.775Z,22.90
2022-08-26T06:21:00.431Z,22.90
2022-08-26T06:23:47.794Z,22.90
2022-08-26T06:26:16.776Z,22.90
2022-08-26T06:28:45.551Z,22.90
2022-08-26T06:31:13.281Z,22.90
2022-08-26T06:33:40.310Z,22.90
2022-08-26T06:36:07.429Z,22.90
2022-08-26T06:38:34.618Z,22.90
2022-08-26T06:41:03.211Z,22.90
2022-08-26T06:43:29.938Z,22.90
2022-08-26T06:46:06.021Z,23.00
2022-08-26T06:48:34.371Z,23.10
2022-08-26T06:51:16.324Z,23.20
2022-08-26T06:53:45.687Z,23.20
2022-08-26T06:56:13.947Z,23.30
2022-08-26T06:58:41.951Z,23.30
2022-08-26T07:01:19.781Z,23.30
2022-08-26T07:03:48.703Z,23.30
2022-08-26T07:06:15.871Z,23.30
2022-08-26T07:08:43.322Z,23.40
2022-08-26T07:11:12.933Z,23.40
2022-08-26T07:13:39.773Z,23.40
2022-08-26T07:16:12.523Z,23.50
2022-08-26T07:18:42.131Z,23.50
2022-08-26T07:21:15.293Z,23.50
2022-08-26T07:23:42.234Z,23.60
2022-08-26T07:26:11.637Z,23.60
2022-08-26T07:28:39.389Z,23.60
2022-08-26T07:31:09.599Z,23.70
2022-08-26T07:33:37.201Z,23.70
2022-08-26T07:36:04.614Z,23.70
2022-08-26T07:38:33.950Z,23.80
2022-08-26T07:41:01.871Z,23.80
2022-08-26T07:43:29.542Z,23.90
2022-08-26T07:45:56.608Z,23.90
2022-08-26T07:48:23.563Z,24.00
2022-08-26T07:50:51.094Z,24.00
2022-08-26T07:53:21.434Z,24.10
2022-08-26T07:55:51.399Z,24.10
2022-08-26T07:58:19.351Z,24.20
2022-08-26T08:00:47.481Z,24.30
2022-08-26T08:03:15.249Z,24.30
2022-08-26T08:05:42.178Z,24.30
2022-08-26T08:08:27.652Z,24.40
2022-08-26T08:10:57.000Z,24.50
2022-08-26T08:13:24.418Z,24.50
2022-08-26T08:15:51.261Z,24.60
2022-08-26T08:18:20.616Z,24.60
2022-08-26T08:20:59.163Z,24.60
2022-08-26T08:23:32.803Z,24.70
2022-08-26T08:26:04.896Z,24.80
2022-08-26T08:28:32.055Z,24.80
2022-08-26T08:30:59.480Z,24.80
2022-08-26T08:33:26.947Z,24.90
2022-08-26T08:35:55.139Z,24.90
2022-08-26T08:38:22.181Z,25.00
2022-08-26T08:40:49.358Z,25.00
2022-08-26T08:43:30.121Z,25.10
2022-08-26T08:46:00.280Z,25.10
2022-08-26T08:48:30.142Z,25.10
2022-08-26T08:51:25.300Z,25.20
2022-08-26T08:53:54.759Z,25.30
2022-08-26T08:56:29.348Z,25.20
2022-08-26T08:59:18.188Z,25.30
2022-08-26T09:02:40.744Z,25.40
2022-08-26T09:05:15.353Z,25.40
2022-08-26T09:07:49.313Z,25.50
2022-08-26T09:10:32.589Z,25.50
2022-08-26T09:13:01.002Z,25.60
2022-08-26T09:16:08.456Z,25.70
2022-08-26T09:18:55.206Z,25.80
2022-08-26T09:21:23.603Z,25.90
2022-08-26T09:23:53.310Z,26.00
2022-08-26T09:26:23.516Z,26.10
2022-08-26T09:28:59.689Z,26.20
2022-08-26T09:31:28.642Z,26.30
2022-08-26T09:34:04.635Z,26.40
2022-08-26T09:36:44.006Z,26.60
2022-08-26T09:39:29.080Z,26.80
2022-08-26T09:42:01.584Z,27.00
2022-08-26T09:44:29.822Z,27.10
2022-08-26T09:47:04.461Z,27.20
2022-08-26T09:49:39.364Z,27.40
2022-08-26T09:52:13.559Z,27.50
2022-08-26T09:54:41.677Z,27.70
2022-08-26T09:57:16.660Z,27.80
2022-08-26T09:59:44.261Z,28.00
2022-08-26T10:02:25.964Z,28.10
2022-08-26T10:04:54.313Z,28.20
2022-08-26T10:07:50.281Z,28.40
2022-08-26T10:10:24.037Z,28.60
2022-08-26T10:12:59.620Z,28.70
2022-08-26T10:15:28.293Z,28.80
2022-08-26T10:18:05.489Z,28.90
2022-08-26T10:20:36.449Z,29.10
2022-08-26T10:23:03.524Z,29.20
2022-08-26T10:25:58.983Z,29.30
2022-08-26T10:28:40.570Z,29.50
2022-08-26T10:31:28.845Z,29.60
2022-08-26T10:34:00.113Z,29.80
2022-08-26T10:37:13.622Z,29.80
2022-08-26T10:40:05.522Z,29.90
2022-08-26T10:42:56.270Z,30.10
2022-08-26T10:45:26.990Z,30.30
2022-08-26T10:47:59.952Z,30.40
2022-08-26T10:50:32.101Z,30.50
2022-08-26T10:53:25.195Z,30.60
2022-08-26T10:56:34.499Z,30.60
2022-08-26T10:59:12.746Z,30.70
2022-08-26T11:01:50.887Z,30.80
2022-08-26T11:04:31.361Z,30.80
2022-08-26T11:07:31.806Z,30.90
2022-08-26T11:10:01.051Z,30.90
2022-08-26T11:12:37.322Z,31.00
2022-08-26T11:15:13.305Z,31.10
2022-08-26T11:17:46.232Z,31.20
2022-08-26T11:20:41.529Z,31.30
2022-08-26T11:23:22.367Z,31.40
2022-08-26T11:26:07.559Z,31.50
2022-08-26T11:28:50.243Z,31.60
2022-08-26T11:31:25.760Z,31.60
2022-08-26T11:33:59.703Z,31.70
2022-08-26T11:36:45.597Z,31.80
2022-08-26T11:39:36.546Z,31.90
2022-08-26T11:42:16.866Z,32.00
2022-08-26T11:44:49.187Z,32.10
2022-08-26T11:47:17.667Z,32.10
2022-08-26T11:49:46.384Z,32.10
2022-08-26T11:52:20.891Z,32.30
2022-08-26T11:55:01.637Z,32.30
2022-08-26T11:57:28.711Z,32.40
2022-08-26T11:59:56.515Z,32.50
2022-08-26T12:02:23.491Z,32.50
2022-08-26T12:04:51.891Z,32.60
2022-08-26T12:07:26.489Z,32.70
2022-08-26T12:09:56.522Z,32.70
2022-08-26T12:12:29.180Z,32.90
2022-08-26T12:15:10.681Z,33.00
2022-08-26T12:17:39.320Z,33.10
2022-08-26T12:20:18.158Z,33.20
2022-08-26T12:22:47.993Z,33.30
2022-08-26T12:25:23.646Z,33.40
2022-08-26T12:27:53.650Z,33.50
2022-08-26T12:30:24.478Z,33.60
2022-08-26T12:33:14.159Z,33.80
2022-08-26T12:35:54.320Z,33.80
2022-08-26T12:38:24.671Z,34.00
2022-08-26T12:40:51.461Z,34.10
2022-08-26T12:43:38.933Z,34.20
2022-08-26T12:46:06.766Z,34.30
2022-08-26T12:48:36.165Z,34.40
2022-08-26T12:51:04.738Z,34.50
2022-08-26T12:53:33.253Z,34.50
2022-08-26T12:56:19.415Z,34.70
2022-08-26T12:59:01.186Z,34.80
2022-08-26T13:01:30.349Z,34.90
2022-08-26T13:03:57.566Z,35.00
2022-08-26T13:06:29.488Z,35.00
2022-08-26T13:09:00.364Z,35.00
2022-08-26T13:11:31.842Z,35.10
2022-08-26T13:14:06.796Z,35.20
2022-08-26T13:16:34.422Z,35.20
2022-08-26T13:19:03.993Z,35.20
2022-08-26T13:21:37.281Z,35.30
2022-08-26T13:24:13.098Z,35.30
2022-08-26T13:26:41.437Z,35.30
2022-08-26T13:29:10.342Z,35.40
2022-08-26T13:31:39.543Z,35.40
2022-08-26T13:34:08.264Z,35.40
2022-08-26T13:36:35.338Z,35.40
2022-08-26T13:39:02.118Z,35.40
2022-08-26T13:41:29.840Z,35.30
2022-08-26T13:43:58.150Z,35.30
2022-08-26T13:46:26.772Z,35.30
2022-08-26T13:48:54.534Z,35.30
2022-08-26T13:51:22.854Z,35.20
2022-08-26T13:53:50.612Z,35.20
2022-08-26T13:56:18.737Z,35.20
2022-08-26T13:58:46.103Z,35.20
2022-08-26T14:01:13.519Z,35.20
2022-08-26T14:03:40.325Z,35.10
2022-08-26T14:06:07.050Z,35.00
2022-08-26T14:08:33.734Z,35.00
2022-08-26T14:11:00.824Z,35.00
2022-08-26T14:13:27.750Z,35.00
2022-08-26T14:15:58.623Z,35.00
2022-08-26T14:18:30.958Z,34.90
2022-08-26T14:21:01.092Z,34.90
2022-08-26T14:23:27.992Z,34.80
2022-08-26T14:25:54.635Z,34.80
2022-08-26T14:28:21.582Z,34.80
2022-08-26T14:30:53.011Z,34.80
2022-08-26T14:33:24.302Z,34.70
2022-08-26T14:35:50.980Z,34.70
2022-08-26T14:38:17.900Z,34.60
2022-08-26T14:40:44.943Z,34.60
2022-08-26T14:43:15.076Z,34.50
2022-08-26T14:45:45.107Z,34.50
2022-08-26T14:48:11.845Z,34.50
2022-08-26T14:50:38.585Z,34.50
2022-08-26T14:53:23.780Z,34.40
2022-08-26T14:55:50.523Z,34.40
2022-08-26T14:58:17.299Z,34.30
2022-08-26T15:00:43.961Z,34.30
2022-08-26T15:03:10.816Z,34.30
2022-08-26T15:05:37.936Z,34.20
2022-08-26T15:08:10.513Z,34.20
2022-08-26T15:10:37.615Z,34.10
2022-08-26T15:13:13.032Z,34.10
2022-08-26T15:15:45.105Z,34.00
2022-08-26T15:18:20.740Z,34.00
2022-08-26T15:20:54.378Z,34.00
2022-08-26T15:23:25.601Z,33.90
2022-08-26T15:25:56.188Z,33.80
2022-08-26T15:28:26.031Z,33.80
2022-08-26T15:30:53.623Z,33.70
2022-08-26T15:33:26.867Z,33.70
2022-08-26T15:35:55.904Z,33.70
2022-08-26T15:38:24.240Z,33.60
2022-08-26T15:40:57.805Z,33.60
2022-08-26T15:43:29.778Z,33.60
2022-08-26T15:45:57.823Z,33.50
2022-08-26T15:48:25.471Z,33.50
2022-08-26T15:50:54.189Z,33.40
2022-08-26T15:53:22.177Z,33.40
2022-08-26T15:55:49.597Z,33.30
2022-08-26T15:58:16.930Z,33.30
2022-08-26T16:00:57.281Z,33.30
2022-08-26T16:03:24.516Z,33.20
2022-08-26T16:09:05.118Z,33.00
2022-08-26T16:11:31.812Z,33.00
2022-08-26T16:13:58.696Z,32.90
2022-08-26T16:16:26.563Z,32.80
2022-08-26T16:18:53.845Z,32.80
2022-08-26T16:21:23.650Z,32.70
2022-08-26T16:23:53.165Z,32.60
2022-08-26T16:26:27.267Z,31.90
2022-08-26T16:28:54.217Z,32.10
2022-08-26T16:31:22.219Z,32.30
2022-08-26T16:33:49.636Z,32.20
2022-08-26T16:36:17.627Z,32.10
2022-08-26T16:38:50.356Z,32.10
2022-08-26T16:41:17.730Z,31.90
2022-08-26T16:43:44.871Z,31.80
2022-08-26T16:46:14.873Z,31.70
2022-08-26T16:48:42.994Z,31.60
2022-08-26T16:51:17.340Z,31.60
2022-08-26T16:53:45.671Z,31.40
2022-08-26T16:56:22.847Z,31.40
2022-08-26T16:58:50.289Z,31.20
2022-08-26T17:01:24.515Z,31.10
2022-08-26T17:03:51.776Z,31.00
2022-08-26T17:06:18.759Z,30.90
2022-08-26T17:08:45.754Z,30.70
2022-08-26T17:11:12.834Z,30.70
2022-08-26T17:13:40.021Z,30.60
2022-08-26T17:16:08.883Z,30.50
2022-08-26T17:18:36.017Z,30.30
2022-08-26T17:21:09.193Z,30.30
2022-08-26T17:23:36.969Z,30.20
2022-08-26T17:26:03.900Z,30.10
2022-08-26T17:28:30.824Z,30.00
2022-08-26T17:30:58.421Z,30.00
2022-08-26T17:33:25.834Z,29.80
2022-08-26T17:35:54.904Z,29.80
2022-08-26T17:38:21.886Z,29.70
2022-08-26T17:40:49.815Z,29.60
2022-08-26T17:43:17.323Z,29.50
2022-08-26T17:45:44.415Z,29.40
2022-08-26T17:48:11.969Z,29.30
2022-08-26T17:50:39.970Z,29.20
2022-08-26T17:53:06.804Z,29.20
2022-08-26T17:55:33.857Z,29.10
2022-08-26T17:58:00.638Z,29.00
2022-08-26T18:00:30.806Z,28.90
2022-08-26T18:02:58.176Z,28.80
2022-08-26T18:05:25.072Z,28.80
2022-08-26T18:07:52.316Z,28.70
2022-08-26T18:10:20.156Z,28.70
2022-08-26T18:12:46.973Z,28.60
2022-08-26T18:15:15.510Z,28.50
2022-08-26T18:17:42.398Z,28.40
2022-08-26T18:20:12.833Z,28.30
2022-08-26T18:22:39.854Z,28.30
2022-08-26T18:25:07.646Z,28.20
2022-08-26T18:27:36.041Z,28.20
2022-08-26T18:30:14.587Z,28.10
2022-08-26T18:32:43.135Z,28.10
2022-08-26T18:35:10.837Z,28.00
2022-08-26T18:37:37.608Z,28.00
2022-08-26T18:40:07.278Z,27.90
2022-08-26T18:42:34.776Z,27.80
2022-08-26T18:45:05.030Z,27.80
2022-08-26T18:47:44.973Z,29.00
2022-08-26T18:50:12.442Z,28.80
2022-08-26T18:52:40.467Z,27.60
2022-08-26T18:55:07.401Z,28.10
2022-08-26T19:01:06.847Z,27.40
2022-08-26T19:03:34.049Z,27.60
2022-08-26T19:06:01.609Z,27.40
2022-08-26T19:08:28.359Z,27.30
2022-08-26T19:10:55.029Z,27.70
2022-08-26T19:13:22.117Z,27.40
2022-08-26T19:15:48.827Z,27.20
2022-08-26T19:18:15.842Z,27.20
2022-08-26T19:20:46.642Z,27.20
2022-08-26T19:23:31.055Z,27.10
2022-08-26T19:25:58.713Z,27.10
2022-08-26T19:28:25.377Z,27.00
2022-08-26T19:30:53.304Z,27.00
2022-08-26T19:33:20.167Z,27.00
2022-08-26T19:35:46.856Z,26.90
2022-08-26T19:38:14.081Z,26.90
2022-08-26T19:40:41.029Z,26.80
2022-08-26T19:43:07.912Z,26.90
2022-08-26T19:45:35.250Z,26.80
2022-08-26T19:48:02.629Z,26.80
2022-08-26T19:50:31.245Z,26.70
2022-08-26T19:52:58.318Z,26.70
2022-08-26T19:55:26.100Z,26.70
2022-08-26T19:57:52.855Z,26.70
2022-08-26T20:00:23.705Z,26.60
2022-08-26T20:02:51.957Z,26.70
2022-08-26T20:05:21.429Z,26.60
2022-08-26T20:07:48.760Z,26.50
2022-08-26T20:10:17.281Z,26.50
2022-08-26T20:12:44.105Z,26.50
2022-08-26T20:15:12.329Z,26.40
2022-08-26T20:17:39.581Z,26.50
2022-08-26T20:20:32.773Z,26.40
2022-08-26T20:23:02.076Z,26.30
2022-08-26T20:25:28.919Z,26.30
2022-08-26T20:27:56.752Z,26.30
2022-08-26T20:30:23.511Z,26.30
2022-08-26T20:32:50.986Z,26.20
2022-08-26T20:35:17.733Z,26.20
2022-08-26T20:37:44.415Z,26.20
2022-08-26T20:40:13.177Z,26.20
2022-08-26T20:42:39.909Z,26.10
2022-08-26T20:45:07.887Z,26.10
2022-08-26T20:47:34.840Z,26.10
2022-08-26T20:50:02.467Z,26.00
2022-08-26T20:52:29.608Z,26.00
2022-08-26T20:54:58.477Z,26.00
2022-08-26T20:57:25.334Z,26.00
2022-08-26T20:59:51.994Z,25.90
2022-08-26T21:02:18.674Z,25.90
2022-08-26T21:04:45.422Z,25.90
2022-08-26T21:07:12.132Z,25.80
2022-08-26T21:09:38.748Z,25.90
2022-08-26T21:12:05.534Z,25.80
2022-08-26T21:14:32.164Z,25.70
2022-08-26T21:16:59.472Z,25.70
2022-08-26T21:19:26.568Z,25.70
2022-08-26T21:21:53.273Z,25.70
2022-08-26T21:24:20.027Z,25.70
2022-08-26T21:26:47.463Z,25.70
2022-08-26T21:29:14.259Z,25.60
2022-08-26T21:31:45.770Z,25.60
2022-08-26T21:34:17.674Z,25.60
2022-08-26T21:36:48.309Z,25.50
2022-08-26T21:39:15.479Z,25.50
2022-08-26T21:41:43.436Z,25.50
2022-08-26T21:44:10.899Z,25.50
2022-08-26T21:46:37.608Z,25.40
2022-08-26T21:49:07.408Z,25.40
2022-08-26T21:51:36.905Z,25.40
2022-08-26T21:54:10.791Z,25.40
2022-08-26T21:56:40.588Z,25.40
2022-08-26T21:59:08.410Z,25.40
2022-08-26T22:01:35.932Z,25.30
2022-08-26T22:04:04.167Z,25.30
2022-08-26T22:06:32.352Z,25.30
2022-08-26T22:08:59.574Z,25.30
2022-08-26T22:11:27.461Z,25.30
2022-08-26T22:13:56.846Z,25.20
2022-08-26T22:16:24.416Z,25.20
2022-08-26T22:18:51.507Z,25.10
2022-08-26T22:21:21.058Z,25.20
2022-08-26T22:23:47.836Z,25.10
2022-08-26T22:26:25.470Z,25.10
2022-08-26T22:28:55.632Z,25.10
2022-08-26T22:31:33.339Z,25.10
2022-08-26T22:34:11.207Z,25.10
2022-08-26T22:36:43.225Z,25.10
2022-08-26T22:39:15.151Z,25.00
2022-08-26T22:41:43.340Z,25.00
2022-08-26T22:44:11.740Z,25.00
2022-08-26T22:46:38.705Z,25.00
2022-08-26T22:49:06.432Z,24.90
2022-08-26T22:51:33.392Z,24.90
2022-08-26T22:54:00.598Z,24.90
2022-08-26T22:56:27.300Z,24.80
2022-08-26T22:58:53.995Z,24.90
2022-08-26T23:01:20.773Z,25.00
2022-08-26T23:03:47.644Z,24.80
2022-08-26T23:06:14.511Z,24.80
2022-08-26T23:08:41.903Z,24.80
2022-08-26T23:11:10.292Z,24.80
2022-08-26T23:13:37.084Z,24.80
2022-08-26T23:16:06.990Z,24.70
2022-08-26T23:18:33.856Z,24.80
2022-08-26T23:21:00.793Z,24.70
2022-08-26T23:23:27.887Z,24.70
2022-08-26T23:25:55.595Z,24.70
2022-08-26T23:28:22.804Z,24.70
2022-08-26T23:30:49.862Z,24.60
2022-08-26T23:33:16.565Z,24.70
2022-08-26T23:35:43.782Z,24.60
2022-08-26T23:38:14.013Z,24.60
2022-08-26T23:40:41.875Z,24.60
2022-08-26T23:43:11.481Z,24.60
2022-08-26T23:45:38.741Z,24.60
2022-08-26T23:48:06.440Z,24.60
2022-08-26T23:50:51.840Z,24.60
2022-08-26T23:53:21.722Z,24.60
2022-08-26T23:55:50.387Z,24.50
2022-08-26T23:58:19.439Z,24.50
